sensor_id;sensor_type;location;lat;lon;timestamp;pressure;altitude;pressure_sealevel;temperature;humidity
72548;BME280;60570;50.848;6.776;2023-05-03T00:00:49;101669.66;;;12.10;56.65
72548;BME280;60570;50.848;6.776;2023-05-03T00:01:51;101670.47;;;12.10;56.45
72548;BME280;60570;50.848;6.776;2023-05-03T00:02:51;101665.22;;;12.09;56.64
72548;BME280;60570;50.848;6.776;2023-05-03T00:03:56;101666.03;;;12.09;56.45
72548;BME280;60570;50.848;6.776;2023-05-03T00:04:57;101664.69;;;12.07;56.61
72548;BME280;60570;50.848;6.776;2023-05-03T00:06:08;101668.31;;;12.07;56.35
72548;BME280;60570;50.848;6.776;2023-05-03T00:07:09;101670.28;;;12.07;56.35
72548;BME280;60570;50.848;6.776;2023-05-03T00:08:11;101663.91;;;12.06;56.50
72548;BME280;60570;50.848;6.776;2023-05-03T00:09:12;101666.69;;;12.06;56.42
72548;BME280;60570;50.848;6.776;2023-05-03T00:10:14;101659.44;;;12.05;56.37
72548;BME280;60570;50.848;6.776;2023-05-03T00:11:15;101662.25;;;12.05;56.67
72548;BME280;60570;50.848;6.776;2023-05-03T00:12:17;101662.25;;;12.05;56.15
72548;BME280;60570;50.848;6.776;2023-05-03T00:13:20;101662.25;;;12.05;56.16
72548;BME280;60570;50.848;6.776;2023-05-03T00:14:23;101665.34;;;12.04;56.48
72548;BME280;60570;50.848;6.776;2023-05-03T00:15:23;101663.41;;;12.04;56.49
72548;BME280;60570;50.848;6.776;2023-05-03T00:16:25;101654.22;;;12.04;56.03
72548;BME280;60570;50.848;6.776;2023-05-03T00:17:26;101661.72;;;12.03;56.38
72548;BME280;60570;50.848;6.776;2023-05-03T00:18:28;101662.88;;;12.02;56.62
72548;BME280;60570;50.848;6.776;2023-05-03T00:19:29;101659.28;;;12.02;56.25
72548;BME280;60570;50.848;6.776;2023-05-03T00:20:33;101653.19;;;12.00;56.62
72548;BME280;60570;50.848;6.776;2023-05-03T00:21:33;101650.41;;;12.00;56.56
72548;BME280;60570;50.848;6.776;2023-05-03T00:22:35;101655.97;;;12.00;56.44
72548;BME280;60570;50.848;6.776;2023-05-03T00:23:36;101647.63;;;12.00;56.50
72548;BME280;60570;50.848;6.776;2023-05-03T00:24:37;101655.16;;;11.99;56.49
72548;BME280;60570;50.848;6.776;2023-05-03T00:25:38;101651.56;;;11.99;56.67
72548;BME280;60570;50.848;6.776;2023-05-03T00:26:40;101646.28;;;11.97;56.29
72548;BME280;60570;50.848;6.776;2023-05-03T00:27:40;101652.69;;;11.98;56.69
72548;BME280;60570;50.848;6.776;2023-05-03T00:28:44;101654.97;;;11.96;56.71
72548;BME280;60570;50.848;6.776;2023-05-03T00:29:45;101649.06;;;11.97;56.68
72548;BME280;60570;50.848;6.776;2023-05-03T00:30:47;101653.00;;;11.96;56.44
72548;BME280;60570;50.848;6.776;2023-05-03T00:31:47;101653.84;;;11.97;56.52
72548;BME280;60570;50.848;6.776;2023-05-03T00:32:49;101650.56;;;11.95;56.51
72548;BME280;60570;50.848;6.776;2023-05-03T00:33:50;101654.97;;;11.96;56.36
72548;BME280;60570;50.848;6.776;2023-05-03T00:34:53;101644.97;;;11.95;56.58
72548;BME280;60570;50.848;6.776;2023-05-03T00:35:54;101654.13;;;11.95;56.59
72548;BME280;60570;50.848;6.776;2023-05-03T00:36:55;101656.91;;;11.95;56.31
72548;BME280;60570;50.848;6.776;2023-05-03T00:37:56;101660.84;;;11.94;56.61
72548;BME280;60570;50.848;6.776;2023-05-03T00:38:58;101654.47;;;11.94;56.50
72548;BME280;60570;50.848;6.776;2023-05-03T00:39:59;101656.72;;;11.92;56.67
72548;BME280;60570;50.848;6.776;2023-05-03T00:41:00;101654.78;;;11.92;56.70
72548;BME280;60570;50.848;6.776;2023-05-03T00:42:02;101663.97;;;11.93;56.89
72548;BME280;60570;50.848;6.776;2023-05-03T00:43:04;101663.13;;;11.92;56.62
72548;BME280;60570;50.848;6.776;2023-05-03T00:44:06;101665.09;;;11.92;56.59
72548;BME280;60570;50.848;6.776;2023-05-03T00:45:09;101663.47;;;11.91;56.55
72548;BME280;60570;50.848;6.776;2023-05-03T00:46:10;101673.44;;;11.92;56.72
72548;BME280;60570;50.848;6.776;2023-05-03T00:47:12;101670.66;;;11.92;56.47
72548;BME280;60570;50.848;6.776;2023-05-03T00:48:13;101675.41;;;11.91;56.75
72548;BME280;60570;50.848;6.776;2023-05-03T00:49:17;101670.97;;;11.90;56.66
72548;BME280;60570;50.848;6.776;2023-05-03T00:50:18;101665.72;;;11.89;56.65
72548;BME280;60570;50.848;6.776;2023-05-03T00:51:20;101669.31;;;11.89;56.51
72548;BME280;60570;50.848;6.776;2023-05-03T00:52:21;101664.91;;;11.88;56.73
72548;BME280;60570;50.848;6.776;2023-05-03T00:53:24;101667.69;;;11.88;56.47
72548;BME280;60570;50.848;6.776;2023-05-03T00:54:26;101659.66;;;11.87;56.65
72548;BME280;60570;50.848;6.776;2023-05-03T00:55:28;101664.06;;;11.88;56.67
72548;BME280;60570;50.848;6.776;2023-05-03T00:56:29;101668.00;;;11.87;56.38
72548;BME280;60570;50.848;6.776;2023-05-03T00:57:33;101660.78;;;11.86;56.78
72548;BME280;60570;50.848;6.776;2023-05-03T00:58:34;101660.78;;;11.86;56.72
72548;BME280;60570;50.848;6.776;2023-05-03T00:59:41;101665.53;;;11.85;56.91
72548;BME280;60570;50.848;6.776;2023-05-03T01:00:42;101659.16;;;11.85;56.74
72548;BME280;60570;50.848;6.776;2023-05-03T01:01:44;101655.53;;;11.84;56.48
72548;BME280;60570;50.848;6.776;2023-05-03T01:02:47;101656.69;;;11.83;56.65
72548;BME280;60570;50.848;6.776;2023-05-03T01:03:49;101659.47;;;11.83;56.66
72548;BME280;60570;50.848;6.776;2023-05-03T01:04:50;101656.69;;;11.83;56.87
72548;BME280;60570;50.848;6.776;2023-05-03T01:05:58;101656.97;;;11.82;56.90
72548;BME280;60570;50.848;6.776;2023-05-03T01:07:16;101662.53;;;11.82;56.65
72548;BME280;60570;50.848;6.776;2023-05-03T01:08:27;101654.19;;;11.82;56.74
72548;BME280;60570;50.848;6.776;2023-05-03T01:09:35;101655.34;;;11.81;56.65
72548;BME280;60570;50.848;6.776;2023-05-03T01:10:45;101653.69;;;11.80;56.87
72548;BME280;60570;50.848;6.776;2023-05-03T01:11:51;101647.31;;;11.79;56.87
72548;BME280;60570;50.848;6.776;2023-05-03T01:13:03;101656.47;;;11.80;56.87
72548;BME280;60570;50.848;6.776;2023-05-03T01:14:12;101643.72;;;11.79;56.54
72548;BME280;60570;50.848;6.776;2023-05-03T01:15:27;101650.41;;;11.78;57.00
72548;BME280;60570;50.848;6.776;2023-05-03T01:16:38;101655.16;;;11.77;56.98
72548;BME280;60570;50.848;6.776;2023-05-03T01:17:47;101647.94;;;11.76;56.26
72548;BME280;60570;50.848;6.776;2023-05-03T01:18:51;101654.34;;;11.77;56.82
72548;BME280;60570;50.848;6.776;2023-05-03T01:20:02;101652.38;;;11.77;56.84
72548;BME280;60570;50.848;6.776;2023-05-03T01:21:06;101647.94;;;11.76;56.92
72548;BME280;60570;50.848;6.776;2023-05-03T01:22:16;101648.25;;;11.75;56.71
72548;BME280;60570;50.848;6.776;2023-05-03T01:23:28;101650.53;;;11.73;56.73
72548;BME280;60570;50.848;6.776;2023-05-03T01:24:32;101650.53;;;11.73;56.50
72548;BME280;60570;50.848;6.776;2023-05-03T01:25:37;101652.47;;;11.72;56.98
72548;BME280;60570;50.848;6.776;2023-05-03T01:26:38;101644.97;;;11.73;56.78
72548;BME280;60570;50.848;6.776;2023-05-03T01:27:40;101648.91;;;11.72;56.85
72548;BME280;60570;50.848;6.776;2023-05-03T01:28:42;101657.25;;;11.72;57.14
72548;BME280;60570;50.848;6.776;2023-05-03T01:29:43;101650.03;;;11.70;56.85
72548;BME280;60570;50.848;6.776;2023-05-03T01:30:45;101650.84;;;11.71;56.62
72548;BME280;60570;50.848;6.776;2023-05-03T01:31:53;101652.81;;;11.70;56.89
72548;BME280;60570;50.848;6.776;2023-05-03T01:33:02;101648.06;;;11.71;57.00
72548;BME280;60570;50.848;6.776;2023-05-03T01:34:17;101648.38;;;11.69;56.89
72548;BME280;60570;50.848;6.776;2023-05-03T01:35:26;101650.34;;;11.69;56.91
72548;BME280;60570;50.848;6.776;2023-05-03T01:36:30;101660.66;;;11.68;56.80
72548;BME280;60570;50.848;6.776;2023-05-03T01:37:34;101657.03;;;11.68;56.70
72548;BME280;60570;50.848;6.776;2023-05-03T01:38:36;101664.59;;;11.67;56.83
72548;BME280;60570;50.848;6.776;2023-05-03T01:39:43;101647.88;;;11.67;57.21
72548;BME280;60570;50.848;6.776;2023-05-03T01:40:50;101656.22;;;11.67;56.87
72548;BME280;60570;50.848;6.776;2023-05-03T01:41:53;101654.03;;;11.64;57.02
72548;BME280;60570;50.848;6.776;2023-05-03T01:42:54;101656.53;;;11.66;57.08
72548;BME280;60570;50.848;6.776;2023-05-03T01:43:57;101648.47;;;11.64;57.02
72548;BME280;60570;50.848;6.776;2023-05-03T01:44:59;101656.81;;;11.64;57.04
72548;BME280;60570;50.848;6.776;2023-05-03T01:46:03;101659.59;;;11.64;56.79
72548;BME280;60570;50.848;6.776;2023-05-03T01:47:04;101654.34;;;11.63;57.10
72548;BME280;60570;50.848;6.776;2023-05-03T01:48:09;101660.75;;;11.63;56.87
72548;BME280;60570;50.848;6.776;2023-05-03T01:49:11;101650.72;;;11.62;57.14
72548;BME280;60570;50.848;6.776;2023-05-03T01:50:13;101659.09;;;11.62;56.90
72548;BME280;60570;50.848;6.776;2023-05-03T01:51:14;101658.25;;;11.62;57.09
72548;BME280;60570;50.848;6.776;2023-05-03T01:52:16;101655.47;;;11.62;57.30
72548;BME280;60570;50.848;6.776;2023-05-03T01:53:17;101653.84;;;11.61;57.09
72548;BME280;60570;50.848;6.776;2023-05-03T01:54:19;101663.03;;;11.61;56.90
72548;BME280;60570;50.848;6.776;2023-05-03T01:55:21;101663.31;;;11.60;57.28
72548;BME280;60570;50.848;6.776;2023-05-03T01:56:24;101661.69;;;11.59;56.96
72548;BME280;60570;50.848;6.776;2023-05-03T01:57:26;101662.50;;;11.59;57.24
72548;BME280;60570;50.848;6.776;2023-05-03T01:58:27;101663.63;;;11.58;56.94
72548;BME280;60570;50.848;6.776;2023-05-03T01:59:28;101670.03;;;11.59;57.04
72548;BME280;60570;50.848;6.776;2023-05-03T02:00:29;101672.31;;;11.57;57.19
72548;BME280;60570;50.848;6.776;2023-05-03T02:01:31;101659.53;;;11.56;56.86
72548;BME280;60570;50.848;6.776;2023-05-03T02:02:32;101661.16;;;11.57;57.03
72548;BME280;60570;50.848;6.776;2023-05-03T02:03:33;101663.94;;;11.57;57.04
72548;BME280;60570;50.848;6.776;2023-05-03T02:04:34;101661.50;;;11.55;57.07
72548;BME280;60570;50.848;6.776;2023-05-03T02:05:36;101673.75;;;11.54;56.83
72548;BME280;60570;50.848;6.776;2023-05-03T02:06:37;101665.41;;;11.54;57.30
72548;BME280;60570;50.848;6.776;2023-05-03T02:07:38;101666.53;;;11.53;56.94
72548;BME280;60570;50.848;6.776;2023-05-03T02:08:39;101663.75;;;11.53;57.08
72548;BME280;60570;50.848;6.776;2023-05-03T02:09:41;101671.28;;;11.53;56.77
72548;BME280;60570;50.848;6.776;2023-05-03T02:10:42;101669.31;;;11.53;57.20
72548;BME280;60570;50.848;6.776;2023-05-03T02:11:46;101669.66;;;11.52;57.03
72548;BME280;60570;50.848;6.776;2023-05-03T02:12:46;101673.22;;;11.52;57.22
72548;BME280;60570;50.848;6.776;2023-05-03T02:13:48;101674.38;;;11.51;56.91
72548;BME280;60570;50.848;6.776;2023-05-03T02:14:49;101674.38;;;11.51;57.07
72548;BME280;60570;50.848;6.776;2023-05-03T02:15:51;101671.59;;;11.51;57.01
72548;BME280;60570;50.848;6.776;2023-05-03T02:16:52;101673.56;;;11.51;57.14
72548;BME280;60570;50.848;6.776;2023-05-03T02:17:54;101678.28;;;11.50;56.78
72548;BME280;60570;50.848;6.776;2023-05-03T02:18:57;101676.66;;;11.49;57.06
72548;BME280;60570;50.848;6.776;2023-05-03T02:20:00;101673.88;;;11.49;57.23
72548;BME280;60570;50.848;6.776;2023-05-03T02:21:00;101673.88;;;11.49;56.88
72548;BME280;60570;50.848;6.776;2023-05-03T02:22:02;101675.00;;;11.48;57.14
72548;BME280;60570;50.848;6.776;2023-05-03T02:23:03;101677.78;;;11.48;56.94
72548;BME280;60570;50.848;6.776;2023-05-03T02:24:05;101676.16;;;11.47;57.08
72548;BME280;60570;50.848;6.776;2023-05-03T02:25:06;101673.34;;;11.47;57.26
72548;BME280;60570;50.848;6.776;2023-05-03T02:26:08;101676.16;;;11.47;57.18
72548;BME280;60570;50.848;6.776;2023-05-03T02:27:10;101683.97;;;11.45;57.05
72548;BME280;60570;50.848;6.776;2023-05-03T02:28:12;101677.25;;;11.46;57.09
72548;BME280;60570;50.848;6.776;2023-05-03T02:29:13;101686.75;;;11.45;57.01
72548;BME280;60570;50.848;6.776;2023-05-03T02:30:15;101682.31;;;11.44;57.16
72548;BME280;60570;50.848;6.776;2023-05-03T02:31:16;101679.53;;;11.44;57.17
72548;BME280;60570;50.848;6.776;2023-05-03T02:32:18;101687.09;;;11.44;57.08
72548;BME280;60570;50.848;6.776;2023-05-03T02:33:20;101687.41;;;11.42;56.85
72548;BME280;60570;50.848;6.776;2023-05-03T02:34:22;101689.34;;;11.42;57.12
72548;BME280;60570;50.848;6.776;2023-05-03T02:35:23;101689.34;;;11.42;57.12
72548;BME280;60570;50.848;6.776;2023-05-03T02:36:25;101698.53;;;11.42;57.05
72548;BME280;60570;50.848;6.776;2023-05-03T02:37:26;101693.25;;;11.41;57.01
72548;BME280;60570;50.848;6.776;2023-05-03T02:38:28;101698.81;;;11.41;57.26
72548;BME280;60570;50.848;6.776;2023-05-03T02:39:29;101699.66;;;11.41;56.99
72548;BME280;60570;50.848;6.776;2023-05-03T02:40:30;101699.13;;;11.39;57.45
72548;BME280;60570;50.848;6.776;2023-05-03T02:41:31;101697.50;;;11.38;57.44
72548;BME280;60570;50.848;6.776;2023-05-03T02:42:35;101699.13;;;11.39;57.02
72548;BME280;60570;50.848;6.776;2023-05-03T02:43:35;101691.09;;;11.38;57.15
72548;BME280;60570;50.848;6.776;2023-05-03T02:44:37;101693.06;;;11.37;57.12
72548;BME280;60570;50.848;6.776;2023-05-03T02:45:38;101693.06;;;11.37;57.26
72548;BME280;60570;50.848;6.776;2023-05-03T02:46:39;101697.78;;;11.37;57.48
72548;BME280;60570;50.848;6.776;2023-05-03T02:47:41;101695.31;;;11.35;57.12
72548;BME280;60570;50.848;6.776;2023-05-03T02:48:43;101705.34;;;11.36;57.12
72548;BME280;60570;50.848;6.776;2023-05-03T02:49:43;101702.56;;;11.36;57.44
72548;BME280;60570;50.848;6.776;2023-05-03T02:50:45;101693.69;;;11.34;57.22
72548;BME280;60570;50.848;6.776;2023-05-03T02:51:46;101692.88;;;11.34;57.22
72548;BME280;60570;50.848;6.776;2023-05-03T02:52:48;101692.03;;;11.33;57.20
72548;BME280;60570;50.848;6.776;2023-05-03T02:53:49;101684.53;;;11.34;57.41
72548;BME280;60570;50.848;6.776;2023-05-03T02:54:51;101688.41;;;11.33;57.08
72548;BME280;60570;50.848;6.776;2023-05-03T02:55:51;101690.41;;;11.32;57.14
72548;BME280;60570;50.848;6.776;2023-05-03T02:56:53;101683.16;;;11.31;57.08
72548;BME280;60570;50.848;6.776;2023-05-03T02:57:55;101688.75;;;11.31;57.06
72548;BME280;60570;50.848;6.776;2023-05-03T02:58:57;101687.91;;;11.31;57.28
72548;BME280;60570;50.848;6.776;2023-05-03T02:59:58;101683.50;;;11.30;57.17
72548;BME280;60570;50.848;6.776;2023-05-03T03:00:59;101679.88;;;11.29;56.96
72548;BME280;60570;50.848;6.776;2023-05-03T03:02:00;101683.50;;;11.30;56.97
72548;BME280;60570;50.848;6.776;2023-05-03T03:03:02;101684.63;;;11.29;57.21
72548;BME280;60570;50.848;6.776;2023-05-03T03:04:04;101682.16;;;11.27;56.92
72548;BME280;60570;50.848;6.776;2023-05-03T03:05:07;101692.47;;;11.27;56.97
72548;BME280;60570;50.848;6.776;2023-05-03T03:06:08;101680.19;;;11.28;57.30
72548;BME280;60570;50.848;6.776;2023-05-03T03:07:10;101685.25;;;11.26;57.18
72548;BME280;60570;50.848;6.776;2023-05-03T03:08:10;101678.84;;;11.25;57.21
72548;BME280;60570;50.848;6.776;2023-05-03T03:09:12;101676.38;;;11.24;56.81
72548;BME280;60570;50.848;6.776;2023-05-03T03:10:13;101675.56;;;11.23;56.94
72548;BME280;60570;50.848;6.776;2023-05-03T03:11:15;101675.56;;;11.23;56.90
72548;BME280;60570;50.848;6.776;2023-05-03T03:12:16;101674.75;;;11.23;56.76
72548;BME280;60570;50.848;6.776;2023-05-03T03:13:19;101674.75;;;11.23;56.95
72548;BME280;60570;50.848;6.776;2023-05-03T03:14:20;101677.03;;;11.21;56.83
72548;BME280;60570;50.848;6.776;2023-05-03T03:15:22;101672.25;;;11.21;56.68
72548;BME280;60570;50.848;6.776;2023-05-03T03:16:22;101679.81;;;11.21;57.10
72548;BME280;60570;50.848;6.776;2023-05-03T03:17:24;101678.97;;;11.20;56.58
72548;BME280;60570;50.848;6.776;2023-05-03T03:18:25;101677.31;;;11.19;56.66
72548;BME280;60570;50.848;6.776;2023-05-03T03:19:27;101680.94;;;11.20;56.66
72548;BME280;60570;50.848;6.776;2023-05-03T03:20:28;101675.69;;;11.18;56.65
72548;BME280;60570;50.848;6.776;2023-05-03T03:21:30;101674.84;;;11.18;56.81
72548;BME280;60570;50.848;6.776;2023-05-03T03:22:32;101669.28;;;11.18;56.73
72548;BME280;60570;50.848;6.776;2023-05-03T03:23:33;101671.25;;;11.17;56.90
72548;BME280;60570;50.848;6.776;2023-05-03T03:24:34;101662.09;;;11.17;56.62
72548;BME280;60570;50.848;6.776;2023-05-03T03:25:36;101665.66;;;11.17;57.09
72548;BME280;60570;50.848;6.776;2023-05-03T03:26:37;101671.56;;;11.16;57.03
72548;BME280;60570;50.848;6.776;2023-05-03T03:27:38;101663.22;;;11.16;57.04
72548;BME280;60570;50.848;6.776;2023-05-03T03:28:41;101652.41;;;11.14;56.95
72548;BME280;60570;50.848;6.776;2023-05-03T03:29:42;101658.28;;;11.13;56.85
72548;BME280;60570;50.848;6.776;2023-05-03T03:30:43;101663.00;;;11.12;56.67
72548;BME280;60570;50.848;6.776;2023-05-03T03:31:45;101663.00;;;11.12;56.52
72548;BME280;60570;50.848;6.776;2023-05-03T03:32:46;101656.63;;;11.12;56.41
72548;BME280;60570;50.848;6.776;2023-05-03T03:33:48;101654.16;;;11.10;56.59
72548;BME280;60570;50.848;6.776;2023-05-03T03:34:49;101651.69;;;11.09;56.33
72548;BME280;60570;50.848;6.776;2023-05-03T03:35:50;101660.34;;;11.07;56.41
72548;BME280;60570;50.848;6.776;2023-05-03T03:36:52;101652.31;;;11.06;56.61
72548;BME280;60570;50.848;6.776;2023-05-03T03:37:54;101646.75;;;11.06;56.55
72548;BME280;60570;50.848;6.776;2023-05-03T03:38:55;101660.13;;;11.04;56.44
72548;BME280;60570;50.848;6.776;2023-05-03T03:39:56;101657.34;;;11.04;56.71
72548;BME280;60570;50.848;6.776;2023-05-03T03:40:57;101653.78;;;11.03;56.45
72548;BME280;60570;50.848;6.776;2023-05-03T03:41:59;101652.09;;;11.02;56.36
72548;BME280;60570;50.848;6.776;2023-05-03T03:43:02;101644.59;;;11.03;56.87
72548;BME280;60570;50.848;6.776;2023-05-03T03:44:04;101650.97;;;11.03;56.59
72548;BME280;60570;50.848;6.776;2023-05-03T03:45:08;101650.16;;;11.03;56.33
72548;BME280;60570;50.848;6.776;2023-05-03T03:46:09;101650.97;;;11.03;56.36
72548;BME280;60570;50.848;6.776;2023-05-03T03:47:10;101650.16;;;11.03;56.74
72548;BME280;60570;50.848;6.776;2023-05-03T03:48:11;101648.81;;;11.00;56.96
72548;BME280;60570;50.848;6.776;2023-05-03T03:49:13;101647.69;;;11.01;56.61
72548;BME280;60570;50.848;6.776;2023-05-03T03:50:13;101657.97;;;11.01;56.48
72548;BME280;60570;50.848;6.776;2023-05-03T03:51:15;101656.03;;;11.01;56.72
72548;BME280;60570;50.848;6.776;2023-05-03T03:52:16;101652.41;;;11.01;56.81
72548;BME280;60570;50.848;6.776;2023-05-03T03:53:18;101652.41;;;11.01;56.78
72548;BME280;60570;50.848;6.776;2023-05-03T03:54:19;101652.75;;;10.99;56.68
72548;BME280;60570;50.848;6.776;2023-05-03T03:55:21;101647.19;;;10.99;57.02
72548;BME280;60570;50.848;6.776;2023-05-03T03:56:22;101653.56;;;11.00;57.01
72548;BME280;60570;50.848;6.776;2023-05-03T03:57:24;101642.72;;;10.98;56.84
72548;BME280;60570;50.848;6.776;2023-05-03T03:58:29;101653.84;;;10.98;56.95
72548;BME280;60570;50.848;6.776;2023-05-03T03:59:32;101653.84;;;10.98;56.95
72548;BME280;60570;50.848;6.776;2023-05-03T04:00:35;101652.22;;;10.97;56.97
72548;BME280;60570;50.848;6.776;2023-05-03T04:01:37;101643.06;;;10.97;57.07
72548;BME280;60570;50.848;6.776;2023-05-03T04:02:38;101645.84;;;10.97;57.13
72548;BME280;60570;50.848;6.776;2023-05-03T04:03:40;101640.59;;;10.95;57.20
72548;BME280;60570;50.848;6.776;2023-05-03T04:04:40;101639.44;;;10.96;57.12
72548;BME280;60570;50.848;6.776;2023-05-03T04:05:42;101646.97;;;10.96;56.90
72548;BME280;60570;50.848;6.776;2023-05-03T04:06:43;101646.16;;;10.95;56.84
72548;BME280;60570;50.848;6.776;2023-05-03T04:07:44;101638.13;;;10.94;57.01
72548;BME280;60570;50.848;6.776;2023-05-03T04:08:45;101640.91;;;10.94;56.77
72548;BME280;60570;50.848;6.776;2023-05-03T04:09:47;101644.50;;;10.94;57.22
72548;BME280;60570;50.848;6.776;2023-05-03T04:10:48;101637.28;;;10.93;57.33
72548;BME280;60570;50.848;6.776;2023-05-03T04:11:50;101642.03;;;10.93;57.09
72548;BME280;60570;50.848;6.776;2023-05-03T04:12:50;101638.41;;;10.92;57.10
72548;BME280;60570;50.848;6.776;2023-05-03T04:13:53;101638.41;;;10.92;56.76
72548;BME280;60570;50.848;6.776;2023-05-03T04:14:55;101632.06;;;10.92;56.78
72548;BME280;60570;50.848;6.776;2023-05-03T04:15:57;101635.94;;;10.91;57.16
72548;BME280;60570;50.848;6.776;2023-05-03T04:16:58;101635.13;;;10.90;57.07
72548;BME280;60570;50.848;6.776;2023-05-03T04:18:00;101630.72;;;10.89;56.96
72548;BME280;60570;50.848;6.776;2023-05-03T04:19:01;101629.88;;;10.89;57.25
72548;BME280;60570;50.848;6.776;2023-05-03T04:20:06;101627.94;;;10.89;57.30
72548;BME280;60570;50.848;6.776;2023-05-03T04:21:07;101627.09;;;10.89;57.10
72548;BME280;60570;50.848;6.776;2023-05-03T04:22:09;101627.09;;;10.89;57.25
72548;BME280;60570;50.848;6.776;2023-05-03T04:23:10;101619.91;;;10.88;57.29
72548;BME280;60570;50.848;6.776;2023-05-03T04:24:15;101620.72;;;10.88;56.97
72548;BME280;60570;50.848;6.776;2023-05-03T04:25:16;101626.59;;;10.87;57.36
72548;BME280;60570;50.848;6.776;2023-05-03T04:26:18;101629.34;;;10.87;56.96
72548;BME280;60570;50.848;6.776;2023-05-03T04:27:21;101628.56;;;10.86;57.07
72548;BME280;60570;50.848;6.776;2023-05-03T04:28:23;101632.97;;;10.87;56.97
72548;BME280;60570;50.848;6.776;2023-05-03T04:29:25;101626.91;;;10.85;56.96
72548;BME280;60570;50.848;6.776;2023-05-03T04:30:28;101624.13;;;10.85;57.05
72548;BME280;60570;50.848;6.776;2023-05-03T04:31:29;101631.63;;;10.84;57.07
72548;BME280;60570;50.848;6.776;2023-05-03T04:32:31;101629.69;;;10.85;57.12
72548;BME280;60570;50.848;6.776;2023-05-03T04:33:36;101637.19;;;10.84;57.13
72548;BME280;60570;50.848;6.776;2023-05-03T04:34:38;101633.59;;;10.84;57.08
72548;BME280;60570;50.848;6.776;2023-05-03T04:35:39;101636.38;;;10.84;57.11
72548;BME280;60570;50.848;6.776;2023-05-03T04:36:40;101642.22;;;10.82;57.19
72548;BME280;60570;50.848;6.776;2023-05-03T04:37:41;101638.34;;;10.83;57.01
72548;BME280;60570;50.848;6.776;2023-05-03T04:38:43;101640.28;;;10.83;56.79
72548;BME280;60570;50.848;6.776;2023-05-03T04:39:44;101648.94;;;10.81;57.47
72548;BME280;60570;50.848;6.776;2023-05-03T04:40:45;101651.72;;;10.81;57.38
72548;BME280;60570;50.848;6.776;2023-05-03T04:41:46;101648.09;;;10.81;57.49
72548;BME280;60570;50.848;6.776;2023-05-03T04:42:48;101653.66;;;10.81;57.33
72548;BME280;60570;50.848;6.776;2023-05-03T04:43:49;101653.66;;;10.81;57.21
72548;BME280;60570;50.848;6.776;2023-05-03T04:44:50;101651.19;;;10.79;56.99
72548;BME280;60570;50.848;6.776;2023-05-03T04:45:52;101664.25;;;10.79;57.11
72548;BME280;60570;50.848;6.776;2023-05-03T04:46:54;101654.28;;;10.78;56.86
72548;BME280;60570;50.848;6.776;2023-05-03T04:47:55;101661.81;;;10.77;57.39
72548;BME280;60570;50.848;6.776;2023-05-03T04:48:57;101670.97;;;10.78;57.64
72548;BME280;60570;50.848;6.776;2023-05-03T04:49:58;101675.69;;;10.77;57.26
72548;BME280;60570;50.848;6.776;2023-05-03T04:50:59;101672.09;;;10.77;57.24
72548;BME280;60570;50.848;6.776;2023-05-03T04:52:01;101671.56;;;10.75;57.24
72548;BME280;60570;50.848;6.776;2023-05-03T04:53:02;101669.63;;;10.75;57.41
72548;BME280;60570;50.848;6.776;2023-05-03T04:54:04;101676.00;;;10.76;57.32
72548;BME280;60570;50.848;6.776;2023-05-03T04:55:07;101685.47;;;10.75;57.30
72548;BME280;60570;50.848;6.776;2023-05-03T04:56:08;101675.50;;;10.74;57.66
72548;BME280;60570;50.848;6.776;2023-05-03T04:57:09;101681.06;;;10.74;57.44
72548;BME280;60570;50.848;6.776;2023-05-03T04:58:10;101680.22;;;10.73;57.66
72548;BME280;60570;50.848;6.776;2023-05-03T04:59:13;101680.22;;;10.73;57.36
72548;BME280;60570;50.848;6.776;2023-05-03T05:00:14;101673.84;;;10.73;57.37
72548;BME280;60570;50.848;6.776;2023-05-03T05:01:25;101673.31;;;10.71;57.56
72548;BME280;60570;50.848;6.776;2023-05-03T05:02:29;101675.81;;;10.72;57.65
72548;BME280;60570;50.848;6.776;2023-05-03T05:03:33;101673.31;;;10.71;57.25
72548;BME280;60570;50.848;6.776;2023-05-03T05:04:36;101671.69;;;10.70;57.33
72548;BME280;60570;50.848;6.776;2023-05-03T05:05:39;101678.34;;;10.69;57.25
72548;BME280;60570;50.848;6.776;2023-05-03T05:06:43;101676.41;;;10.69;57.61
72548;BME280;60570;50.848;6.776;2023-05-03T05:07:45;101676.72;;;10.68;57.43
72548;BME280;60570;50.848;6.776;2023-05-03T05:08:49;101675.56;;;10.69;57.69
72548;BME280;60570;50.848;6.776;2023-05-03T05:10:02;101676.72;;;10.68;57.81
72548;BME280;60570;50.848;6.776;2023-05-03T05:11:14;101671.16;;;10.68;57.44
72548;BME280;60570;50.848;6.776;2023-05-03T05:12:17;101678.66;;;10.67;57.67
72548;BME280;60570;50.848;6.776;2023-05-03T05:13:22;101682.28;;;10.68;57.60
72548;BME280;60570;50.848;6.776;2023-05-03T05:14:25;101679.81;;;10.66;57.65
72548;BME280;60570;50.848;6.776;2023-05-03T05:15:29;101677.03;;;10.66;57.53
72548;BME280;60570;50.848;6.776;2023-05-03T05:16:33;101687.63;;;10.64;57.39
72548;BME280;60570;50.848;6.776;2023-05-03T05:17:37;101687.63;;;10.64;57.49
72548;BME280;60570;50.848;6.776;2023-05-03T05:18:39;101685.97;;;10.63;57.62
72548;BME280;60570;50.848;6.776;2023-05-03T05:19:43;101688.75;;;10.63;57.61
72548;BME280;60570;50.848;6.776;2023-05-03T05:20:46;101679.59;;;10.63;57.40
72548;BME280;60570;50.848;6.776;2023-05-03T05:21:50;101691.22;;;10.65;57.65
72548;BME280;60570;50.848;6.776;2023-05-03T05:22:54;101687.13;;;10.62;57.59
72548;BME280;60570;50.848;6.776;2023-05-03T05:23:57;101685.47;;;10.61;57.40
72548;BME280;60570;50.848;6.776;2023-05-03T05:25:01;101695.97;;;10.64;57.66
72548;BME280;60570;50.848;6.776;2023-05-03T05:26:05;101699.88;;;10.63;57.79
72548;BME280;60570;50.848;6.776;2023-05-03T05:27:08;101688.22;;;10.61;57.63